sensor_id;sensor_type;location;lat;lon;timestamp;temperature;humidity
4637;DHT22;2331;48.806;9.140;2024-03-23T00:55:54;14.60;1.00
4637;DHT22;2331;48.806;9.140;2024-03-23T00:58:20;14.70;1.00
4637;DHT22;2331;48.806;9.140;2024-03-23T01:00:46;14.70;1.00
4637;DHT22;2331;48.806;9.140;2024-03-23T01:03:13;14.70;1.00
4637;DHT22;2331;48.806;9.140;2024-03-23T01:05:39;14.60;1.00
4637;DHT22;2331;48.806;9.140;2024-03-23T01:08:06;14.70;1.00
4637;DHT22;2331;48.806;9.140;2024-03-23T01:10:32;14.60;1.00
4637;DHT22;2331;48.806;9.140;2024-03-23T01:13:00;14.70;1.00
4637;DHT22;2331;48.806;9.140;2024-03-23T01:15:25;14.70;1.00
4637;DHT22;2331;48.806;9.140;2024-03-23T01:17:52;14.70;1.00
4637;DHT22;2331;48.806;9.140;2024-03-23T01:20:18;14.80;1.00
4637;DHT22;2331;48.806;9.140;2024-03-23T01:22:45;14.80;1.00
4637;DHT22;2331;48.806;9.140;2024-03-23T01:25:10;14.80;1.00
4637;DHT22;2331;48.806;9.140;2024-03-23T01:27:38;14.80;1.00
4637;DHT22;2331;48.806;9.140;2024-03-23T01:30:06;14.80;1.00
4637;DHT22;2331;48.806;9.140;2024-03-23T01:32:33;14.90;1.00
4637;DHT22;2331;48.806;9.140;2024-03-23T01:34:59;14.80;1.00
4637;DHT22;2331;48.806;9.140;2024-03-23T01:37:26;14.80;1.00
4637;DHT22;2331;48.806;9.140;2024-03-23T01:39:52;14.80;1.00
4637;DHT22;2331;48.806;9.140;2024-03-23T01:42:18;14.80;1.00
4637;DHT22;2331;48.806;9.140;2024-03-23T01:44:44;14.80;1.00
4637;DHT22;2331;48.806;9.140;2024-03-23T01:47:12;14.90;1.00
4637;DHT22;2331;48.806;9.140;2024-03-23T01:49:38;14.90;1.00
4637;DHT22;2331;48.806;9.140;2024-03-23T01:52:05;14.90;1.00
4637;DHT22;2331;48.806;9.140;2024-03-23T01:54:31;15.00;1.00
4637;DHT22;2331;48.806;9.140;2024-03-23T01:56:58;15.00;1.00
4637;DHT22;2331;48.806;9.140;2024-03-23T01:59:25;15.00;1.00
4637;DHT22;2331;48.806;9.140;2024-03-23T02:01:52;15.00;1.00
4637;DHT22;2331;48.806;9.140;2024-03-23T02:04:19;15.00;1.00
4637;DHT22;2331;48.806;9.140;2024-03-23T02:06:46;15.00;1.00
4637;DHT22;2331;48.806;9.140;2024-03-23T02:09:11;15.00;1.00
4637;DHT22;2331;48.806;9.140;2024-03-23T02:11:39;15.00;1.00
4637;DHT22;2331;48.806;9.140;2024-03-23T02:14:04;15.00;1.00
4637;DHT22;2331;48.806;9.140;2024-03-23T02:16:33;15.00;1.00
4637;DHT22;2331;48.806;9.140;2024-03-23T02:18:59;15.00;1.00
4637;DHT22;2331;48.806;9.140;2024-03-23T02:21:27;15.00;1.00
4637;DHT22;2331;48.806;9.140;2024-03-23T02:23:54;15.00;1.00
4637;DHT22;2331;48.806;9.140;2024-03-23T02:26:21;15.00;1.00
4637;DHT22;2331;48.806;9.140;2024-03-23T02:28:47;14.90;1.00
4637;DHT22;2331;48.806;9.140;2024-03-23T02:31:13;14.80;1.00
4637;DHT22;2331;48.806;9.140;2024-03-23T02:33:40;14.80;1.00
4637;DHT22;2331;48.806;9.140;2024-03-23T02:36:07;14.80;1.00
4637;DHT22;2331;48.806;9.140;2024-03-23T02:38:33;14.80;1.00
4637;DHT22;2331;48.806;9.140;2024-03-23T02:41:03;14.80;1.00
4637;DHT22;2331;48.806;9.140;2024-03-23T02:43:29;14.70;1.00
4637;DHT22;2331;48.806;9.140;2024-03-23T02:45:56;14.70;1.00
4637;DHT22;2331;48.806;9.140;2024-03-23T02:48:22;14.70;1.00
4637;DHT22;2331;48.806;9.140;2024-03-23T02:50:49;14.70;1.00
4637;DHT22;2331;48.806;9.140;2024-03-23T02:53:15;14.70;1.00
4637;DHT22;2331;48.806;9.140;2024-03-23T02:55:42;14.70;1.00
4637;DHT22;2331;48.806;9.140;2024-03-23T02:58:10;14.70;1.00
4637;DHT22;2331;48.806;9.140;2024-03-23T03:00:36;14.60;1.00
4637;DHT22;2331;48.806;9.140;2024-03-23T03:03:02;14.60;1.00
4637;DHT22;2331;48.806;9.140;2024-03-23T03:05:29;14.60;1.00
4637;DHT22;2331;48.806;9.140;2024-03-23T03:07:55;14.60;1.00
4637;DHT22;2331;48.806;9.140;2024-03-23T03:10:22;14.60;1.00
4637;DHT22;2331;48.806;9.140;2024-03-23T03:12:47;14.60;1.00
4637;DHT22;2331;48.806;9.140;2024-03-23T03:15:16;14.60;1.00
4637;DHT22;2331;48.806;9.140;2024-03-23T03:17:41;14.60;1.00
4637;DHT22;2331;48.806;9.140;2024-03-23T03:20:09;14.60;1.00
4637;DHT22;2331;48.806;9.140;2024-03-23T03:22:38;14.60;1.00
4637;DHT22;2331;48.806;9.140;2024-03-23T03:25:06;14.60;1.00
4637;DHT22;2331;48.806;9.140;2024-03-23T03:27:32;14.60;1.00
4637;DHT22;2331;48.806;9.140;2024-03-23T03:29:59;14.50;1.00
4637;DHT22;2331;48.806;9.140;2024-03-23T03:32:28;14.50;1.00
4637;DHT22;2331;48.806;9.140;2024-03-23T03:34:55;14.50;1.00
4637;DHT22;2331;48.806;9.140;2024-03-23T03:37:21;14.50;1.00
4637;DHT22;2331;48.806;9.140;2024-03-23T03:39:48;14.50;1.00
4637;DHT22;2331;48.806;9.140;2024-03-23T03:42:14;14.50;1.00
4637;DHT22;2331;48.806;9.140;2024-03-23T03:44:41;14.50;1.00
4637;DHT22;2331;48.806;9.140;2024-03-23T03:47:06;14.50;1.00
4637;DHT22;2331;48.806;9.140;2024-03-23T03:49:35;14.40;1.00
4637;DHT22;2331;48.806;9.140;2024-03-23T03:52:00;14.40;1.00
4637;DHT22;2331;48.806;9.140;2024-03-23T03:54:27;14.40;1.00
4637;DHT22;2331;48.806;9.140;2024-03-23T03:56:53;14.40;1.00
4637;DHT22;2331;48.806;9.140;2024-03-23T03:59:20;14.40;1.00
4637;DHT22;2331;48.806;9.140;2024-03-23T04:01:46;14.30;1.00
4637;DHT22;2331;48.806;9.140;2024-03-23T04:04:12;14.30;1.00
4637;DHT22;2331;48.806;9.140;2024-03-23T04:06:40;14.30;1.00
4637;DHT22;2331;48.806;9.140;2024-03-23T04:09:07;14.30;1.00
4637;DHT22;2331;48.806;9.140;2024-03-23T04:11:33;14.30;1.00
4637;DHT22;2331;48.806;9.140;2024-03-23T04:14:00;14.40;1.00
4637;DHT22;2331;48.806;9.140;2024-03-23T04:16:27;14.40;1.00
4637;DHT22;2331;48.806;9.140;2024-03-23T04:18:54;14.40;1.00
4637;DHT22;2331;48.806;9.140;2024-03-23T04:21:19;14.40;1.00
4637;DHT22;2331;48.806;9.140;2024-03-23T04:23:48;14.40;1.00
4637;DHT22;2331;48.806;9.140;2024-03-23T04:26:14;14.40;1.00
4637;DHT22;2331;48.806;9.140;2024-03-23T04:28:41;14.40;1.00
4637;DHT22;2331;48.806;9.140;2024-03-23T04:31:08;14.40;1.00
4637;DHT22;2331;48.806;9.140;2024-03-23T04:33:35;14.20;1.00
4637;DHT22;2331;48.806;9.140;2024-03-23T04:36:04;13.80;1.00
4637;DHT22;2331;48.806;9.140;2024-03-23T04:38:32;13.60;1.00
4637;DHT22;2331;48.806;9.140;2024-03-23T04:41:00;13.50;1.00
4637;DHT22;2331;48.806;9.140;2024-03-23T04:43:27;13.60;1.00
4637;DHT22;2331;48.806;9.140;2024-03-23T04:45:54;13.70;1.00
4637;DHT22;2331;48.806;9.140;2024-03-23T04:48:21;13.80;1.00
4637;DHT22;2331;48.806;9.140;2024-03-23T04:50:48;13.50;1.00
4637;DHT22;2331;48.806;9.140;2024-03-23T04:53:15;13.50;1.00
4637;DHT22;2331;48.806;9.140;2024-03-23T04:55:42;13.50;1.00
4637;DHT22;2331;48.806;9.140;2024-03-23T04:58:10;13.50;1.00
4637;DHT22;2331;48.806;9.140;2024-03-23T05:00:36;13.70;1.00
4637;DHT22;2331;48.806;9.140;2024-03-23T05:03:02;13.60;1.00
4637;DHT22;2331;48.806;9.140;2024-03-23T05:05:29;13.50;1.00
4637;DHT22;2331;48.806;9.140;2024-03-23T05:07:55;13.40;1.00
4637;DHT22;2331;48.806;9.140;2024-03-23T05:10:22;13.50;1.00
4637;DHT22;2331;48.806;9.140;2024-03-23T05:12:48;13.50;1.00
4637;DHT22;2331;48.806;9.140;2024-03-23T05:15:16;13.30;1.00
4637;DHT22;2331;48.806;9.140;2024-03-23T05:17:42;13.50;1.00
4637;DHT22;2331;48.806;9.140;2024-03-23T05:20:09;13.10;1.00
4637;DHT22;2331;48.806;9.140;2024-03-23T05:22:35;13.20;1.00
4637;DHT22;2331;48.806;9.140;2024-03-23T05:25:02;13.30;1.00
4637;DHT22;2331;48.806;9.140;2024-03-23T05:27:30;13.10;1.00
4637;DHT22;2331;48.806;9.140;2024-03-23T05:29:57;13.10;1.00
4637;DHT22;2331;48.806;9.140;2024-03-23T05:32:24;13.20;1.00
4637;DHT22;2331;48.806;9.140;2024-03-23T05:34:51;12.70;1.00
4637;DHT22;2331;48.806;9.140;2024-03-23T05:37:21;12.50;1.00
4637;DHT22;2331;48.806;9.140;2024-03-23T05:39:48;12.30;1.00
4637;DHT22;2331;48.806;9.140;2024-03-23T05:42:15;12.40;1.00
4637;DHT22;2331;48.806;9.140;2024-03-23T05:44:43;12.30;1.00
4637;DHT22;2331;48.806;9.140;2024-03-23T05:47:09;11.80;1.00
4637;DHT22;2331;48.806;9.140;2024-03-23T05:49:38;11.80;1.00
4637;DHT22;2331;48.806;9.140;2024-03-23T05:52:04;11.80;1.00
4637;DHT22;2331;48.806;9.140;2024-03-23T05:54:30;11.70;1.00
4637;DHT22;2331;48.806;9.140;2024-03-23T05:56:56;11.50;1.00
4637;DHT22;2331;48.806;9.140;2024-03-23T05:59:23;11.80;1.00
4637;DHT22;2331;48.806;9.140;2024-03-23T06:01:49;11.90;1.00
4637;DHT22;2331;48.806;9.140;2024-03-23T06:04:16;11.80;1.00
4637;DHT22;2331;48.806;9.140;2024-03-23T06:06:43;11.50;1.00
4637;DHT22;2331;48.806;9.140;2024-03-23T06:09:09;11.70;1.00
4637;DHT22;2331;48.806;9.140;2024-03-23T06:11:35;11.50;1.00
4637;DHT22;2331;48.806;9.140;2024-03-23T06:14:02;11.40;1.00
4637;DHT22;2331;48.806;9.140;2024-03-23T06:16:28;11.60;1.00
4637;DHT22;2331;48.806;9.140;2024-03-23T06:18:56;11.40;1.00
4637;DHT22;2331;48.806;9.140;2024-03-23T06:21:22;11.50;1.00
4637;DHT22;2331;48.806;9.140;2024-03-23T06:23:51;11.60;1.00
4637;DHT22;2331;48.806;9.140;2024-03-23T06:26:18;11.60;1.00
4637;DHT22;2331;48.806;9.140;2024-03-23T06:28:45;11.50;1.00
4637;DHT22;2331;48.806;9.140;2024-03-23T06:31:11;11.40;1.00
4637;DHT22;2331;48.806;9.140;2024-03-23T06:33:38;11.50;1.00
4637;DHT22;2331;48.806;9.140;2024-03-23T06:36:05;11.40;1.00
4637;DHT22;2331;48.806;9.140;2024-03-23T06:38:32;11.50;1.00
4637;DHT22;2331;48.806;9.140;2024-03-23T06:41:02;11.20;1.00
4637;DHT22;2331;48.806;9.140;2024-03-23T06:43:28;11.50;1.00
4637;DHT22;2331;48.806;9.140;2024-03-23T06:45:55;11.50;1.00
4637;DHT22;2331;48.806;9.140;2024-03-23T06:48:21;11.20;1.00
4637;DHT22;2331;48.806;9.140;2024-03-23T06:50:48;11.10;1.00
4637;DHT22;2331;48.806;9.140;2024-03-23T06:53:15;11.10;1.00
4637;DHT22;2331;48.806;9.140;2024-03-23T06:55:41;11.40;1.00
4637;DHT22;2331;48.806;9.140;2024-03-23T06:58:09;11.30;1.00
4637;DHT22;2331;48.806;9.140;2024-03-23T07:00:35;10.90;1.00
4637;DHT22;2331;48.806;9.140;2024-03-23T07:03:01;11.20;1.00
4637;DHT22;2331;48.806;9.140;2024-03-23T07:05:29;10.80;1.00
4637;DHT22;2331;48.806;9.140;2024-03-23T07:07:55;10.90;1.00
4637;DHT22;2331;48.806;9.140;2024-03-23T07:10:21;10.70;1.00
4637;DHT22;2331;48.806;9.140;2024-03-23T07:12:47;10.80;1.00
4637;DHT22;2331;48.806;9.140;2024-03-23T07:15:15;10.90;1.00
4637;DHT22;2331;48.806;9.140;2024-03-23T07:17:41;10.50;1.00
4637;DHT22;2331;48.806;9.140;2024-03-23T07:20:09;10.70;1.00
4637;DHT22;2331;48.806;9.140;2024-03-23T07:22:36;10.50;1.00
4637;DHT22;2331;48.806;9.140;2024-03-23T07:25:03;10.50;1.00
4637;DHT22;2331;48.806;9.140;2024-03-23T07:27:28;10.70;1.00
4637;DHT22;2331;48.806;9.140;2024-03-23T07:29:55;10.30;1.00
4637;DHT22;2331;48.806;9.140;2024-03-23T07:32:22;10.30;1.00
4637;DHT22;2331;48.806;9.140;2024-03-23T07:34:49;10.60;1.00
4637;DHT22;2331;48.806;9.140;2024-03-23T07:37:15;10.80;1.00
4637;DHT22;2331;48.806;9.140;2024-03-23T07:39:42;10.70;1.00
4637;DHT22;2331;48.806;9.140;2024-03-23T07:42:08;10.40;1.00
4637;DHT22;2331;48.806;9.140;2024-03-23T07:44:37;10.30;1.00
4637;DHT22;2331;48.806;9.140;2024-03-23T07:47:03;10.40;1.00
4637;DHT22;2331;48.806;9.140;2024-03-23T07:49:31;10.50;1.00
4637;DHT22;2331;48.806;9.140;2024-03-23T07:51:57;10.30;1.00
4637;DHT22;2331;48.806;9.140;2024-03-23T07:54:24;10.10;1.00
4637;DHT22;2331;48.806;9.140;2024-03-23T07:56:50;10.10;1.00
4637;DHT22;2331;48.806;9.140;2024-03-23T07:59:16;9.80;1.00
4637;DHT22;2331;48.806;9.140;2024-03-23T08:01:44;10.00;1.00
4637;DHT22;2331;48.806;9.140;2024-03-23T08:04:11;9.80;1.00
4637;DHT22;2331;48.806;9.140;2024-03-23T08:06:40;10.00;1.00
4637;DHT22;2331;48.806;9.140;2024-03-23T08:09:05;9.90;1.00
4637;DHT22;2331;48.806;9.140;2024-03-23T08:11:32;9.60;1.00
4637;DHT22;2331;48.806;9.140;2024-03-23T08:14:00;9.70;1.00
4637;DHT22;2331;48.806;9.140;2024-03-23T08:16:27;9.70;1.00
4637;DHT22;2331;48.806;9.140;2024-03-23T08:18:52;9.90;1.00
4637;DHT22;2331;48.806;9.140;2024-03-23T08:21:21;9.80;1.00
4637;DHT22;2331;48.806;9.140;2024-03-23T08:23:48;9.90;1.00
4637;DHT22;2331;48.806;9.140;2024-03-23T08:26:16;9.90;1.00
4637;DHT22;2331;48.806;9.140;2024-03-23T08:28:43;9.60;1.00
4637;DHT22;2331;48.806;9.140;2024-03-23T08:31:11;9.50;1.00
4637;DHT22;2331;48.806;9.140;2024-03-23T08:33:37;9.70;1.00
4637;DHT22;2331;48.806;9.140;2024-03-23T08:36:05;9.90;1.00
4637;DHT22;2331;48.806;9.140;2024-03-23T08:38:32;9.90;1.00
4637;DHT22;2331;48.806;9.140;2024-03-23T08:41:00;9.80;1.00
4637;DHT22;2331;48.806;9.140;2024-03-23T08:43:28;9.70;1.00
4637;DHT22;2331;48.806;9.140;2024-03-23T08:46:03;9.80;1.00
4637;DHT22;2331;48.806;9.140;2024-03-23T08:48:29;9.70;1.00
4637;DHT22;2331;48.806;9.140;2024-03-23T08:51:01;9.80;1.00
4637;DHT22;2331;48.806;9.140;2024-03-23T08:53:28;10.00;1.00
4637;DHT22;2331;48.806;9.140;2024-03-23T08:55:55;9.90;1.00
4637;DHT22;2331;48.806;9.140;2024-03-23T08:58:23;10.00;1.00
4637;DHT22;2331;48.806;9.140;2024-03-23T09:00:51;9.80;1.00
4637;DHT22;2331;48.806;9.140;2024-03-23T09:03:16;9.70;1.00
4637;DHT22;2331;48.806;9.140;2024-03-23T09:05:43;9.80;1.00
4637;DHT22;2331;48.806;9.140;2024-03-23T09:08:09;9.80;1.00
4637;DHT22;2331;48.806;9.140;2024-03-23T09:10:38;9.60;1.00
4637;DHT22;2331;48.806;9.140;2024-03-23T09:13:04;9.80;1.00
4637;DHT22;2331;48.806;9.140;2024-03-23T09:15:33;9.70;1.00
4637;DHT22;2331;48.806;9.140;2024-03-23T09:17:59;9.90;1.00
4637;DHT22;2331;48.806;9.140;2024-03-23T09:20:26;9.90;1.00
4637;DHT22;2331;48.806;9.140;2024-03-23T09:22:52;9.90;1.00
4637;DHT22;2331;48.806;9.140;2024-03-23T09:25:19;10.10;1.00
4637;DHT22;2331;48.806;9.140;2024-03-23T09:27:46;10.00;1.00
4637;DHT22;2331;48.806;9.140;2024-03-23T09:30:13;10.10;1.00
4637;DHT22;2331;48.806;9.140;2024-03-23T09:32:42;10.20;1.00
4637;DHT22;2331;48.806;9.140;2024-03-23T09:35:09;10.20;1.00
4637;DHT22;2331;48.806;9.140;2024-03-23T09:37:35;10.30;1.00
4637;DHT22;2331;48.806;9.140;2024-03-23T09:40:03;10.40;1.00
4637;DHT22;2331;48.806;9.140;2024-03-23T09:42:28;10.40;1.00
4637;DHT22;2331;48.806;9.140;2024-03-23T09:44:57;10.10;1.00
4637;DHT22;2331;48.806;9.140;2024-03-23T09:47:24;10.30;1.00
4637;DHT22;2331;48.806;9.140;2024-03-23T09:49:53;10.60;1.00
4637;DHT22;2331;48.806;9.140;2024-03-23T09:52:18;10.80;1.00
4637;DHT22;2331;48.806;9.140;2024-03-23T09:54:45;10.90;1.00
4637;DHT22;2331;48.806;9.140;2024-03-23T09:57:11;10.80;1.00
4637;DHT22;2331;48.806;9.140;2024-03-23T09:59:38;10.80;1.00
4637;DHT22;2331;48.806;9.140;2024-03-23T10:02:04;10.50;1.00
4637;DHT22;2331;48.806;9.140;2024-03-23T10:04:37;10.80;1.00
4637;DHT22;2331;48.806;9.140;2024-03-23T10:07:15;10.90;1.00
4637;DHT22;2331;48.806;9.140;2024-03-23T10:09:43;10.70;1.00
4637;DHT22;2331;48.806;9.140;2024-03-23T10:12:10;11.00;1.00
4637;DHT22;2331;48.806;9.140;2024-03-23T10:14:37;10.90;1.00
4637;DHT22;2331;48.806;9.140;2024-03-23T10:17:14;11.00;1.00
4637;DHT22;2331;48.806;9.140;2024-03-23T10:19:43;10.80;1.00
4637;DHT22;2331;48.806;9.140;2024-03-23T10:22:10;10.90;1.00
4637;DHT22;2331;48.806;9.140;2024-03-23T10:24:38;11.00;1.00
4637;DHT22;2331;48.806;9.140;2024-03-23T10:27:04;10.90;1.00
4637;DHT22;2331;48.806;9.140;2024-03-23T10:29:31;11.00;1.00
4637;DHT22;2331;48.806;9.140;2024-03-23T10:32:07;10.80;1.00
4637;DHT22;2331;48.806;9.140;2024-03-23T10:34:35;11.00;1.00
4637;DHT22;2331;48.806;9.140;2024-03-23T10:37:02;11.10;1.00
4637;DHT22;2331;48.806;9.140;2024-03-23T10:39:31;11.40;1.00
4637;DHT22;2331;48.806;9.140;2024-03-23T10:42:01;11.50;1.00
4637;DHT22;2331;48.806;9.140;2024-03-23T10:44:29;11.40;1.00
4637;DHT22;2331;48.806;9.140;2024-03-23T10:46:56;11.50;1.00
4637;DHT22;2331;48.806;9.140;2024-03-23T10:49:25;11.60;1.00
4637;DHT22;2331;48.806;9.140;2024-03-23T10:51:52;11.00;1.00
4637;DHT22;2331;48.806;9.140;2024-03-23T10:54:20;10.00;1.00
4637;DHT22;2331;48.806;9.140;2024-03-23T10:56:47;9.90;1.00
4637;DHT22;2331;48.806;9.140;2024-03-23T10:59:16;9.30;1.00
4637;DHT22;2331;48.806;9.140;2024-03-23T11:01:55;9.00;1.00
4637;DHT22;2331;48.806;9.140;2024-03-23T11:04:32;8.70;1.00
4637;DHT22;2331;48.806;9.140;2024-03-23T11:06:58;8.70;1.00
4637;DHT22;2331;48.806;9.140;2024-03-23T11:09:41;8.50;1.00
4637;DHT22;2331;48.806;9.140;2024-03-23T11:12:26;9.00;1.00
4637;DHT22;2331;48.806;9.140;2024-03-23T11:14:56;9.30;1.00
4637;DHT22;2331;48.806;9.140;2024-03-23T11:17:23;9.20;1.00
4637;DHT22;2331;48.806;9.140;2024-03-23T11:19:54;9.10;1.00
4637;DHT22;2331;48.806;9.140;2024-03-23T11:22:41;9.20;1.00
4637;DHT22;2331;48.806;9.140;2024-03-23T11:25:16;9.20;1.00
4637;DHT22;2331;48.806;9.140;2024-03-23T11:27:44;9.30;1.00
4637;DHT22;2331;48.806;9.140;2024-03-23T11:30:14;9.70;1.00
4637;DHT22;2331;48.806;9.140;2024-03-23T11:32:42;9.90;1.00
4637;DHT22;2331;48.806;9.140;2024-03-23T11:35:08;10.00;1.00
4637;DHT22;2331;48.806;9.140;2024-03-23T11:37:36;9.70;1.00
4637;DHT22;2331;48.806;9.140;2024-03-23T11:40:17;9.50;1.00
4637;DHT22;2331;48.806;9.140;2024-03-23T11:42:44;10.00;1.00
4637;DHT22;2331;48.806;9.140;2024-03-23T11:45:10;10.00;1.00
4637;DHT22;2331;48.806;9.140;2024-03-23T11:47:39;9.80;1.00
4637;DHT22;2331;48.806;9.140;2024-03-23T11:50:05;10.00;1.00
4637;DHT22;2331;48.806;9.140;2024-03-23T11:52:32;10.00;1.00
4637;DHT22;2331;48.806;9.140;2024-03-23T11:55:03;10.20;1.00
4637;DHT22;2331;48.806;9.140;2024-03-23T11:57:33;10.40;1.00
4637;DHT22;2331;48.806;9.140;2024-03-23T11:59:59;10.00;1.00
4637;DHT22;2331;48.806;9.140;2024-03-23T12:02:26;10.10;1.00
4637;DHT22;2331;48.806;9.140;2024-03-23T12:04:53;10.30;1.00
4637;DHT22;2331;48.806;9.140;2024-03-23T12:07:20;10.50;1.00
4637;DHT22;2331;48.806;9.140;2024-03-23T12:10:02;10.30;1.00
4637;DHT22;2331;48.806;9.140;2024-03-23T12:12:29;10.30;1.00
4637;DHT22;2331;48.806;9.140;2024-03-23T12:15:01;10.50;1.00
4637;DHT22;2331;48.806;9.140;2024-03-23T12:17:29;10.50;1.00
4637;DHT22;2331;48.806;9.140;2024-03-23T12:19:56;10.50;1.00
4637;DHT22;2331;48.806;9.140;2024-03-23T12:22:23;10.50;1.00
4637;DHT22;2331;48.806;9.140;2024-03-23T12:24:49;10.90;1.00
4637;DHT22;2331;48.806;9.140;2024-03-23T12:27:16;11.10;1.00
4637;DHT22;2331;48.806;9.140;2024-03-23T12:29:43;10.80;1.00
4637;DHT22;2331;48.806;9.140;2024-03-23T12:32:12;10.70;1.00
4637;DHT22;2331;48.806;9.140;2024-03-23T12:34:38;10.90;1.00
4637;DHT22;2331;48.806;9.140;2024-03-23T12:37:06;10.90;1.00
4637;DHT22;2331;48.806;9.140;2024-03-23T12:39:32;10.70;1.00
4637;DHT22;2331;48.806;9.140;2024-03-23T12:42:00;10.90;1.00
4637;DHT22;2331;48.806;9.140;2024-03-23T12:44:26;10.90;1.00
4637;DHT22;2331;48.806;9.140;2024-03-23T12:46:53;11.00;1.00
4637;DHT22;2331;48.806;9.140;2024-03-23T12:49:19;10.80;1.00
4637;DHT22;2331;48.806;9.140;2024-03-23T12:51:52;11.00;1.00
4637;DHT22;2331;48.806;9.140;2024-03-23T12:54:20;11.30;1.00
4637;DHT22;2331;48.806;9.140;2024-03-23T12:56:47;11.50;1.00
4637;DHT22;2331;48.806;9.140;2024-03-23T12:59:13;11.70;1.00
4637;DHT22;2331;48.806;9.140;2024-03-23T13:01:40;11.60;1.00
4637;DHT22;2331;48.806;9.140;2024-03-23T13:04:06;11.60;1.00
4637;DHT22;2331;48.806;9.140;2024-03-23T13:06:33;11.90;1.00
4637;DHT22;2331;48.806;9.140;2024-03-23T13:09:00;11.70;1.00
4637;DHT22;2331;48.806;9.140;2024-03-23T13:11:28;12.00;1.00
4637;DHT22;2331;48.806;9.140;2024-03-23T13:13:54;11.90;1.00
4637;DHT22;2331;48.806;9.140;2024-03-23T13:16:21;12.10;1.00
4637;DHT22;2331;48.806;9.140;2024-03-23T13:18:46;12.20;1.00
4637;DHT22;2331;48.806;9.140;2024-03-23T13:21:13;12.20;1.00
4637;DHT22;2331;48.806;9.140;2024-03-23T13:23:39;12.00;1.00
4637;DHT22;2331;48.806;9.140;2024-03-23T13:26:08;11.80;1.00
4637;DHT22;2331;48.806;9.140;2024-03-23T13:28:35;11.50;1.00
4637;DHT22;2331;48.806;9.140;2024-03-23T13:31:03;11.40;1.00
4637;DHT22;2331;48.806;9.140;2024-03-23T13:33:29;11.40;1.00
4637;DHT22;2331;48.806;9.140;2024-03-23T13:35:57;11.70;1.00
4637;DHT22;2331;48.806;9.140;2024-03-23T13:38:23;11.60;1.00
4637;DHT22;2331;48.806;9.140;2024-03-23T13:40:51;11.50;1.00
4637;DHT22;2331;48.806;9.140;2024-03-23T13:43:17;11.70;1.00
4637;DHT22;2331;48.806;9.140;2024-03-23T13:45:46;12.00;1.00
4637;DHT22;2331;48.806;9.140;2024-03-23T13:48:12;12.10;1.00
4637;DHT22;2331;48.806;9.140;2024-03-23T13:50:38;12.20;1.00
4637;DHT22;2331;48.806;9.140;2024-03-23T13:53:05;12.10;1.00
4637;DHT22;2331;48.806;9.140;2024-03-23T13:55:32;12.50;1.00
4637;DHT22;2331;48.806;9.140;2024-03-23T13:57:58;12.50;1.00
4637;DHT22;2331;48.806;9.140;2024-03-23T14:00:25;11.90;1.00
4637;DHT22;2331;48.806;9.140;2024-03-23T14:02:52;11.60;1.00
4637;DHT22;2331;48.806;9.140;2024-03-23T14:05:18;10.80;1.00
4637;DHT22;2331;48.806;9.140;2024-03-23T14:07:44;10.60;1.00
4637;DHT22;2331;48.806;9.140;2024-03-23T14:10:11;9.90;1.00
4637;DHT22;2331;48.806;9.140;2024-03-23T14:12:37;9.30;1.00
4637;DHT22;2331;48.806;9.140;2024-03-23T14:15:05;8.90;1.00
4637;DHT22;2331;48.806;9.140;2024-03-23T14:17:31;8.50;1.00
4637;DHT22;2331;48.806;9.140;2024-03-23T14:19:59;8.70;1.00
4637;DHT22;2331;48.806;9.140;2024-03-23T14:22:26;8.60;1.00
4637;DHT22;2331;48.806;9.140;2024-03-23T14:24:53;8.80;1.00
4637;DHT22;2331;48.806;9.140;2024-03-23T14:27:19;8.90;1.00
4637;DHT22;2331;48.806;9.140;2024-03-23T14:29:47;9.00;1.00
4637;DHT22;2331;48.806;9.140;2024-03-23T14:32:12;9.10;1.00
4637;DHT22;2331;48.806;9.140;2024-03-23T14:34:40;9.40;1.00
4637;DHT22;2331;48.806;9.140;2024-03-23T14:37:07;9.60;1.00
4637;DHT22;2331;48.806;9.140;2024-03-23T14:39:34;9.90;1.00
4637;DHT22;2331;48.806;9.140;2024-03-23T14:42:00;9.60;1.00
4637;DHT22;2331;48.806;9.140;2024-03-23T14:44:27;9.40;1.00
4637;DHT22;2331;48.806;9.140;2024-03-23T14:46:53;9.20;1.00
4637;DHT22;2331;48.806;9.140;2024-03-23T14:49:20;9.10;1.00
4637;DHT22;2331;48.806;9.140;2024-03-23T14:51:46;9.20;1.00
4637;DHT22;2331;48.806;9.140;2024-03-23T14:54:14;9.30;1.00
4637;DHT22;2331;48.806;9.140;2024-03-23T14:56:40;9.30;1.00
4637;DHT22;2331;48.806;9.140;2024-03-23T14:59:07;9.20;1.00
4637;DHT22;2331;48.806;9.140;2024-03-23T15:01:33;9.40;1.00
4637;DHT22;2331;48.806;9.140;2024-03-23T15:04:00;9.20;1.00
4637;DHT22;2331;48.806;9.140;2024-03-23T15:06:26;9.40;1.00
4637;DHT22;2331;48.806;9.140;2024-03-23T15:08:52;9.30;1.00
4637;DHT22;2331;48.806;9.140;2024-03-23T15:11:21;9.30;1.00
4637;DHT22;2331;48.806;9.140;2024-03-23T15:13:50;9.00;1.00
4637;DHT22;2331;48.806;9.140;2024-03-23T15:16:17;8.60;1.00
4637;DHT22;2331;48.806;9.140;2024-03-23T15:18:45;8.90;1.00
4637;DHT22;2331;48.806;9.140;2024-03-23T15:21:12;9.00;1.00
4637;DHT22;2331;48.806;9.140;2024-03-23T15:23:39;9.10;1.00
4637;DHT22;2331;48.806;9.140;2024-03-23T15:26:07;9.10;1.00
4637;DHT22;2331;48.806;9.140;2024-03-23T15:28:34;9.00;1.00
4637;DHT22;2331;48.806;9.140;2024-03-23T15:31:07;9.20;1.00
4637;DHT22;2331;48.806;9.140;2024-03-23T15:33:33;9.40;1.00
4637;DHT22;2331;48.806;9.140;2024-03-23T15:36:00;9.50;1.00
4637;DHT22;2331;48.806;9.140;2024-03-23T15:38:26;9.70;1.00
4637;DHT22;2331;48.806;9.140;2024-03-23T15:40:54;9.70;1.00
4637;DHT22;2331;48.806;9.140;2024-03-23T15:43:20;9.50;1.00
4637;DHT22;2331;48.806;9.140;2024-03-23T15:45:55;9.70;1.00
4637;DHT22;2331;48.806;9.140;2024-03-23T15:48:21;9.70;1.00
4637;DHT22;2331;48.806;9.140;2024-03-23T15:50:51;9.70;1.00
4637;DHT22;2331;48.806;9.140;2024-03-23T15:53:18;9.80;1.00
4637;DHT22;2331;48.806;9.140;2024-03-23T15:55:45;9.90;1.00
4637;DHT22;2331;48.806;9.140;2024-03-23T15:58:10;10.10;1.00
4637;DHT22;2331;48.806;9.140;2024-03-23T16:00:37;10.10;1.00
4637;DHT22;2331;48.806;9.140;2024-03-23T16:03:05;10.20;1.00
4637;DHT22;2331;48.806;9.140;2024-03-23T16:05:31;10.40;1.00
4637;DHT22;2331;48.806;9.140;2024-03-23T16:07:57;10.50;1.00
4637;DHT22;2331;48.806;9.140;2024-03-23T16:10:24;10.50;1.00
4637;DHT22;2331;48.806;9.140;2024-03-23T16:12:50;10.60;1.00
4637;DHT22;2331;48.806;9.140;2024-03-23T16:15:16;10.50;1.00
4637;DHT22;2331;48.806;9.140;2024-03-23T16:17:42;10.60;1.00
4637;DHT22;2331;48.806;9.140;2024-03-23T16:20:11;10.70;1.00
4637;DHT22;2331;48.806;9.140;2024-03-23T16:22:38;10.60;1.00
4637;DHT22;2331;48.806;9.140;2024-03-23T16:25:05;10.60;1.00
4637;DHT22;2331;48.806;9.140;2024-03-23T16:27:32;10.70;1.00
4637;DHT22;2331;48.806;9.140;2024-03-23T16:29:59;10.80;1.00
4637;DHT22;2331;48.806;9.140;2024-03-23T16:32:25;10.70;1.00
4637;DHT22;2331;48.806;9.140;2024-03-23T16:34:54;10.70;1.00
4637;DHT22;2331;48.806;9.140;2024-03-23T16:37:21;10.80;1.00
4637;DHT22;2331;48.806;9.140;2024-03-23T16:39:48;10.40;1.00
4637;DHT22;2331;48.806;9.140;2024-03-23T16:42:14;10.30;1.00
4637;DHT22;2331;48.806;9.140;2024-03-23T16:44:41;10.30;1.00
4637;DHT22;2331;48.806;9.140;2024-03-23T16:47:07;9.90;1.00
4637;DHT22;2331;48.806;9.140;2024-03-23T16:49:35;9.40;1.00
4637;DHT22;2331;48.806;9.140;2024-03-23T16:52:02;9.20;1.00
4637;DHT22;2331;48.806;9.140;2024-03-23T16:54:31;9.20;1.00
4637;DHT22;2331;48.806;9.140;2024-03-23T16:56:57;9.00;1.00
4637;DHT22;2331;48.806;9.140;2024-03-23T16:59:23;9.30;1.00
4637;DHT22;2331;48.806;9.140;2024-03-23T17:01:50;9.40;1.00
4637;DHT22;2331;48.806;9.140;2024-03-23T17:04:16;9.70;1.00
4637;DHT22;2331;48.806;9.140;2024-03-23T17:06:43;9.90;1.00
4637;DHT22;2331;48.806;9.140;2024-03-23T17:09:08;10.00;1.00
4637;DHT22;2331;48.806;9.140;2024-03-23T17:11:37;10.10;1.00
4637;DHT22;2331;48.806;9.140;2024-03-23T17:14:02;10.10;1.00
4637;DHT22;2331;48.806;9.140;2024-03-23T17:16:30;10.10;1.00